Hambletville, New York
Current Conditions -  °F | °C
As of 2:05 AM on Friday 28 Nov 2014 (Local Time) from KBGM Reporting Station
Light Snow Light Snow  
Wind Chill: 18°   Ceiling: 5500
Heat Index: 24°   Visibility: 5mi
Dew Point: 21°   Wind: 5mph
Humidity: 88%   Direction: 290°WNW
Pressure: 30.01"   Gusts: NA
Location:  42.0783°N, 75.4419°W
Report Text: KBGM 280705Z AUTO 29004KT 5SM -SN BR FEW014 OVC055 M04/M06 A3001 RMK AO2 P0000 T10441061 $
Loading
Personal Weather Stations






























Interactive Weather Map New forecast layout! Learn more

10-Day Weather Forecast

Advertisements
Track Severe Weather on mobile